Список аэропортов
Фактическая погода:

24 июня, 23:20
Температура: +13°C (+12.1*)
Ветер: западный 3 м/с
Давление: *764 мм
разорв. обл.
270 м
разорв. обл.
870 м
Время (МСК)Темп. СВетерВлажностьДавлениеОблачностьОсадки
21:00+14З, 4 м/с76%1018 гПаоблачно
22:00+14З, 4 м/с77%1018 гПаоблачно
23:00+14З, 4 м/с79%1018 гПаоблачно
25 июня
00:00+14З, 3 м/с82%1018 гПаоблачно
01:00+14З, 3 м/с84%1019 гПаоблачно
02:00+14З, 3 м/с86%1019 гПаоблачно
03:00+14З, 3 м/с86%1019 гПаоблачно
04:00+13ЮЗ, 3 м/с89%1018 гПас прояснениями
05:00+13ЮЗ, 2 м/с90%1019 гПаоблачно
06:00+13З, 3 м/с91%1019 гПаоблачно
07:00+14З, 3 м/с89%1019 гПаоблачно
08:00+14З, 4 м/с86%1019 гПас прояснениями
09:00+15З, 4 м/с81%1019 гПас прояснениями
10:00+16З, 4 м/с75%1020 гПас прояснениями
11:00+18З, 5 м/с66%1019 гПас прояснениями
12:00+19З, 6 м/с60%1019 гПамалооблачно
13:00+20З, 6 м/с56%1019 гПас прояснениями
14:00+21З, 5 м/с54%1019 гПас прояснениями
15:00+22З, 5 м/с50%1019 гПас прояснениями
16:00+22З, 5 м/с48%1019 гПаоблачно
17:00+22З, 5 м/с48%1019 гПаоблачно
18:00+22З, 6 м/с48%1019 гПаоблачно
19:00+21СЗ, 5 м/с51%1019 гПаоблачно
20:00+21СЗ, 5 м/с53%1019 гПаоблачно
21:00+20СЗ, 5 м/с55%1019 гПаоблачно
22:00+20СЗ, 3 м/с59%1020 гПамалооблачно
23:00+18З, 3 м/с70%1020 гПаясно
26 июня
00:00+16З, 3 м/с76%1021 гПаясно
01:00+16СЗ, 3 м/с82%1021 гПаясно
02:00+14З, 3 м/с89%1021 гПаясно
03:00+14З, 3 м/с94%1021 гПаясно
04:00+13З, 3 м/с96%1021 гПаясно
05:00+12СЗ, 3 м/с96%1021 гПаясно
06:00+12СЗ, 3 м/с97%1021 гПаясно
07:00+12З, 3 м/с96%1022 гПаясно
08:00+13СЗ, 3 м/с91%1022 гПамалооблачно
09:00+15СЗ, 2 м/с84%1022 гПамалооблачно
10:00+17З, 3 м/с75%1022 гПамалооблачно
11:00+20З, 4 м/с64%1022 гПаясно
12:00+21СЗ, 4 м/с57%1022 гПамалооблачно
13:00+23СЗ, 4 м/с51%1022 гПамалооблачно
14:00+23СЗ, 4 м/с48%1022 гПас прояснениями
15:00+24СЗ, 4 м/с44%1022 гПамалооблачно
16:00+25С, 5 м/с40%1021 гПас прояснениями
17:00+25С, 5 м/с38%1021 гПас прояснениями
18:00+24С, 5 м/с38%1021 гПас прояснениями
19:00+24С, 5 м/с40%1021 гПамалооблачно
20:00+24С, 5 м/с44%1021 гПас прояснениями
21:00+23С, 5 м/с49%1021 гПаоблачно